createdAt,value
2022-08-03T00:00:41.901Z,0.00
2022-08-03T00:01:41.901Z,0.00
2022-08-03T00:02:41.916Z,0.00
2022-08-03T00:03:41.904Z,0.00
2022-08-03T00:04:41.896Z,0.00
2022-08-03T00:06:03.480Z,0.00
2022-08-03T00:06:41.897Z,0.00
2022-08-03T00:07:41.901Z,0.00
2022-08-03T00:08:41.890Z,0.00
2022-08-03T00:09:41.895Z,0.00
2022-08-03T00:10:41.923Z,0.00
2022-08-03T00:11:41.901Z,0.00
2022-08-03T00:12:41.886Z,0.00
2022-08-03T00:13:41.875Z,0.00
2022-08-03T00:14:41.929Z,0.00
2022-08-03T00:15:41.885Z,0.00
2022-08-03T00:16:41.881Z,0.00
2022-08-03T00:17:52.081Z,0.00
2022-08-03T00:18:41.881Z,0.00
2022-08-03T00:19:41.890Z,0.00
2022-08-03T00:20:41.869Z,0.00
2022-08-03T00:21:41.872Z,0.00
2022-08-03T00:22:41.868Z,0.00
2022-08-03T00:23:52.462Z,0.00
2022-08-03T00:24:41.862Z,0.00
2022-08-03T00:25:41.856Z,0.00
2022-08-03T00:26:41.862Z,0.00
2022-08-03T00:27:41.860Z,0.00
2022-08-03T00:28:41.859Z,0.00
2022-08-03T00:29:59.815Z,0.00
2022-08-03T00:30:41.898Z,0.00
2022-08-03T00:31:52.314Z,0.00
2022-08-03T00:32:44.270Z,0.00
2022-08-03T00:33:58.855Z,0.00
2022-08-03T00:34:57.865Z,0.00
2022-08-03T00:35:50.725Z,0.00
2022-08-03T00:36:41.842Z,0.00
2022-08-03T00:37:42.024Z,0.00
2022-08-03T00:38:41.842Z,0.00
2022-08-03T00:39:41.847Z,0.00
2022-08-03T00:40:41.838Z,0.00
2022-08-03T00:41:41.840Z,0.00
2022-08-03T00:42:41.843Z,0.00
2022-08-03T00:43:41.835Z,0.00
2022-08-03T00:44:41.831Z,0.00
2022-08-03T00:45:41.835Z,0.00
2022-08-03T00:46:41.827Z,0.00
2022-08-03T00:47:41.830Z,0.00
2022-08-03T00:48:41.825Z,0.00
2022-08-03T00:49:41.879Z,0.00
2022-08-03T00:50:41.825Z,0.00
2022-08-03T00:51:41.822Z,0.00
2022-08-03T00:52:41.822Z,0.00
2022-08-03T00:53:41.823Z,0.00
2022-08-03T00:54:41.826Z,0.00
2022-08-03T00:55:41.816Z,0.00
2022-08-03T00:56:41.814Z,0.00
2022-08-03T00:57:41.821Z,0.00
2022-08-03T00:58:41.813Z,0.00
2022-08-03T00:59:41.809Z,0.00
2022-08-03T01:00:41.808Z,0.00
2022-08-03T01:01:41.905Z,0.00
2022-08-03T01:02:41.804Z,0.00
2022-08-03T01:03:41.807Z,0.00
2022-08-03T01:04:41.803Z,0.00
2022-08-03T01:05:41.802Z,0.00
2022-08-03T01:06:41.804Z,0.00
2022-08-03T01:07:41.795Z,0.00
2022-08-03T01:08:41.791Z,0.00
2022-08-03T01:09:41.799Z,0.00
2022-08-03T01:10:41.788Z,0.00
2022-08-03T01:12:00.249Z,0.00
2022-08-03T01:12:41.788Z,0.00
2022-08-03T01:14:04.067Z,0.00
2022-08-03T01:14:41.796Z,0.00
2022-08-03T01:15:41.784Z,0.00
2022-08-03T01:16:41.782Z,0.00
2022-08-03T01:17:41.780Z,0.00
2022-08-03T01:18:41.779Z,0.00
2022-08-03T01:19:41.776Z,0.00
2022-08-03T01:20:41.776Z,0.00
2022-08-03T01:21:41.775Z,0.00
2022-08-03T01:22:41.771Z,0.00
2022-08-03T01:23:41.770Z,0.00
2022-08-03T01:24:41.766Z,0.00
2022-08-03T01:25:41.763Z,0.00
2022-08-03T01:26:41.768Z,0.00
2022-08-03T01:27:41.760Z,0.00
2022-08-03T01:28:41.761Z,0.00
2022-08-03T01:29:41.766Z,0.00
2022-08-03T01:30:41.757Z,0.00
2022-08-03T01:32:58.628Z,0.00
2022-08-03T01:32:58.899Z,0.00
2022-08-03T01:33:41.755Z,0.00
2022-08-03T01:34:41.748Z,0.00
2022-08-03T01:35:41.749Z,0.00
2022-08-03T01:36:41.745Z,0.00
2022-08-03T01:37:41.747Z,0.00
2022-08-03T01:38:41.748Z,0.00
2022-08-03T01:39:41.742Z,0.00
2022-08-03T01:40:41.747Z,0.00
2022-08-03T01:41:41.745Z,0.00
2022-08-03T01:42:41.736Z,0.00
2022-08-03T01:44:26.406Z,0.00
2022-08-03T01:44:41.741Z,0.00
2022-08-03T01:45:41.726Z,0.00
2022-08-03T01:46:47.667Z,0.00
2022-08-03T01:47:41.732Z,0.00
2022-08-03T01:48:41.732Z,0.00
2022-08-03T01:49:41.797Z,0.00
2022-08-03T01:50:41.722Z,0.00
2022-08-03T01:52:03.179Z,0.00
2022-08-03T01:52:41.719Z,0.00
2022-08-03T01:53:41.723Z,0.00
2022-08-03T01:54:41.717Z,0.00
2022-08-03T01:55:41.715Z,0.00
2022-08-03T01:56:41.734Z,0.00
2022-08-03T01:58:04.598Z,0.00
2022-08-03T01:58:41.709Z,0.00
2022-08-03T01:59:41.711Z,0.00
2022-08-03T02:00:41.754Z,0.00
2022-08-03T02:02:31.697Z,0.00
2022-08-03T02:02:42.313Z,0.00
2022-08-03T02:04:00.050Z,0.00
2022-08-03T02:04:41.700Z,0.00
2022-08-03T02:05:41.705Z,0.00
2022-08-03T02:07:02.815Z,0.00
2022-08-03T02:07:41.694Z,0.00
2022-08-03T02:08:41.697Z,0.00
2022-08-03T02:09:41.686Z,0.00
2022-08-03T02:10:41.688Z,0.00
2022-08-03T02:11:41.684Z,0.00
2022-08-03T02:12:41.685Z,0.00
2022-08-03T02:13:41.686Z,0.00
2022-08-03T02:14:41.686Z,0.00
2022-08-03T02:15:41.679Z,0.00
2022-08-03T02:16:41.686Z,0.00
2022-08-03T02:17:41.683Z,0.00
2022-08-03T02:18:41.677Z,0.00
2022-08-03T02:19:41.675Z,0.00
2022-08-03T02:20:41.676Z,0.00
2022-08-03T02:21:56.560Z,0.00
2022-08-03T02:22:41.670Z,0.00
2022-08-03T02:23:41.667Z,0.00
2022-08-03T02:24:41.659Z,0.00
2022-08-03T02:25:41.673Z,0.00
2022-08-03T02:26:41.659Z,0.00
2022-08-03T02:27:43.680Z,0.00
2022-08-03T02:28:41.660Z,0.00
2022-08-03T02:29:41.654Z,0.00
2022-08-03T02:30:41.654Z,0.00
2022-08-03T02:31:41.657Z,0.00
2022-08-03T02:32:41.658Z,0.00
2022-08-03T02:33:41.646Z,0.00
2022-08-03T02:34:41.648Z,0.00
2022-08-03T02:35:41.650Z,0.00
2022-08-03T02:36:41.644Z,0.00
2022-08-03T02:37:42.902Z,0.00
2022-08-03T02:38:41.657Z,0.00
2022-08-03T02:39:41.640Z,0.00
2022-08-03T02:40:41.642Z,0.00
2022-08-03T02:41:41.636Z,0.00
2022-08-03T02:42:41.635Z,0.00
2022-08-03T02:44:06.314Z,0.00
2022-08-03T02:44:41.641Z,0.00
2022-08-03T02:45:45.385Z,0.00
2022-08-03T02:46:41.627Z,0.00
2022-08-03T02:47:54.058Z,0.00
2022-08-03T02:48:41.621Z,0.00
2022-08-03T02:49:50.915Z,0.00
2022-08-03T02:50:41.621Z,0.00
2022-08-03T02:51:41.623Z,0.00
2022-08-03T02:52:41.625Z,4.00
2022-08-03T02:53:41.617Z,4.00
2022-08-03T02:54:41.611Z,0.00
2022-08-03T02:55:45.614Z,0.00
2022-08-03T02:56:41.609Z,4.00
2022-08-03T02:57:41.611Z,4.00
2022-08-03T02:58:41.607Z,4.00
2022-08-03T02:59:41.607Z,4.00
2022-08-03T03:00:41.647Z,4.00
2022-08-03T03:01:41.609Z,4.00
2022-08-03T03:02:44.444Z,8.00
2022-08-03T03:03:44.903Z,8.00
2022-08-03T03:04:44.433Z,8.00
2022-08-03T03:05:54.836Z,8.00
2022-08-03T03:06:41.591Z,12.00
2022-08-03T03:07:52.261Z,12.00
2022-08-03T03:08:41.588Z,16.00
2022-08-03T03:09:43.203Z,20.00
2022-08-03T03:10:41.590Z,24.00
2022-08-03T03:11:41.582Z,24.00
2022-08-03T03:12:41.590Z,28.00
2022-08-03T03:13:41.588Z,28.00
2022-08-03T03:14:41.578Z,32.00
2022-08-03T03:15:41.580Z,36.00
2022-08-03T03:16:41.577Z,40.00
2022-08-03T03:17:41.572Z,48.00
2022-08-03T03:18:41.571Z,56.00
2022-08-03T03:19:41.563Z,60.00
2022-08-03T03:20:41.563Z,64.00
2022-08-03T03:21:41.566Z,72.00
2022-08-03T03:22:41.565Z,80.00
2022-08-03T03:23:41.563Z,88.00
2022-08-03T03:24:41.567Z,96.00
2022-08-03T03:25:41.556Z,104.00
2022-08-03T03:26:42.511Z,112.00
2022-08-03T03:27:41.560Z,124.00
2022-08-03T03:28:41.553Z,132.00
2022-08-03T03:29:41.551Z,140.00
2022-08-03T03:30:41.552Z,152.00
2022-08-03T03:31:41.546Z,168.00
2022-08-03T03:32:41.540Z,180.00
2022-08-03T03:33:41.541Z,188.00
2022-08-03T03:34:41.541Z,204.00
2022-08-03T03:35:41.543Z,216.00
2022-08-03T03:36:41.546Z,232.00
2022-08-03T03:37:41.535Z,248.00
2022-08-03T03:38:41.543Z,260.00
2022-08-03T03:39:41.532Z,280.00
2022-08-03T03:40:41.581Z,296.00
2022-08-03T03:41:41.531Z,316.00
2022-08-03T03:42:41.518Z,336.00
2022-08-03T03:43:41.526Z,356.00
2022-08-03T03:44:41.521Z,376.00
2022-08-03T03:45:41.520Z,396.00
2022-08-03T03:46:41.516Z,416.00
2022-08-03T03:47:41.521Z,444.00
2022-08-03T03:48:41.515Z,480.00
2022-08-03T03:49:41.509Z,512.00
2022-08-03T03:50:41.512Z,552.00
2022-08-03T03:51:41.505Z,584.00
2022-08-03T03:52:41.506Z,624.00
2022-08-03T03:53:41.497Z,660.00
2022-08-03T03:54:41.493Z,696.00
2022-08-03T03:56:01.207Z,732.00
2022-08-03T03:56:41.488Z,776.00
2022-08-03T03:57:41.493Z,824.00
2022-08-03T03:58:41.501Z,876.00
2022-08-03T03:59:41.491Z,928.00
2022-08-03T04:00:41.534Z,984.00
2022-08-03T04:01:41.491Z,1064.00
2022-08-03T04:02:41.482Z,1144.00
2022-08-03T04:03:41.486Z,1188.00
2022-08-03T04:04:41.484Z,1196.00
2022-08-03T04:05:45.782Z,1204.00
2022-08-03T04:06:41.472Z,1232.00
2022-08-03T04:07:41.473Z,1276.00
2022-08-03T04:08:41.471Z,1316.00
2022-08-03T04:09:41.471Z,1364.00
2022-08-03T04:10:41.464Z,1432.00
2022-08-03T04:11:41.465Z,1492.00
2022-08-03T04:12:50.206Z,1508.00
2022-08-03T04:13:41.457Z,1528.00
2022-08-03T04:14:41.459Z,1560.00
2022-08-03T04:15:41.463Z,1592.00
2022-08-03T04:16:43.791Z,1628.00
2022-08-03T04:17:41.448Z,1668.00
2022-08-03T04:18:41.449Z,1700.00
2022-08-03T04:19:41.448Z,1732.00
2022-08-03T04:20:41.450Z,1768.00
2022-08-03T04:21:41.450Z,1804.00
2022-08-03T04:22:41.441Z,1856.00
2022-08-03T04:23:41.440Z,1908.00
2022-08-03T04:24:41.435Z,1960.00
2022-08-03T04:25:41.437Z,2008.00
2022-08-03T04:26:41.434Z,2064.00
2022-08-03T04:27:41.439Z,2140.00
2022-08-03T04:28:41.423Z,2224.00
2022-08-03T04:29:44.884Z,2324.00
2022-08-03T04:30:41.459Z,2436.00
2022-08-03T04:31:41.420Z,2572.00
2022-08-03T04:32:45.690Z,2744.00
2022-08-03T04:33:41.420Z,2956.00
2022-08-03T04:34:41.418Z,3196.00
2022-08-03T04:36:00.871Z,3460.00
2022-08-03T04:36:41.423Z,3712.00
2022-08-03T04:37:41.427Z,3916.00
2022-08-03T04:38:41.413Z,4060.00
2022-08-03T04:39:41.405Z,4160.00
2022-08-03T04:40:41.403Z,4252.00
2022-08-03T04:42:08.199Z,4356.00
2022-08-03T04:42:41.405Z,4412.00
2022-08-03T04:43:41.419Z,4464.00
2022-08-03T04:44:41.410Z,4176.00
2022-08-03T04:45:41.399Z,4432.00
2022-08-03T04:46:41.399Z,4588.00
2022-08-03T04:47:41.410Z,4568.00
2022-08-03T04:48:44.593Z,4688.00
2022-08-03T04:49:41.444Z,4736.00
2022-08-03T04:50:41.391Z,4788.00
2022-08-03T04:51:41.394Z,4832.00
2022-08-03T04:52:41.393Z,4896.00
2022-08-03T04:53:41.388Z,4956.00
2022-08-03T04:54:41.391Z,5004.00
2022-08-03T04:55:41.387Z,5048.00
2022-08-03T04:56:41.388Z,5072.00
2022-08-03T04:57:41.389Z,5112.00
2022-08-03T04:58:41.388Z,5172.00
2022-08-03T04:59:41.385Z,5220.00
2022-08-03T05:00:41.389Z,5276.00
2022-08-03T05:01:41.485Z,5336.00
2022-08-03T05:02:41.383Z,5356.00
2022-08-03T05:03:41.386Z,5384.00
2022-08-03T05:04:41.394Z,5384.00
2022-08-03T05:05:50.137Z,5380.00
2022-08-03T05:06:47.857Z,5380.00
2022-08-03T05:07:41.391Z,5384.00
2022-08-03T05:08:46.182Z,5412.00
2022-08-03T05:09:52.819Z,5456.00
2022-08-03T05:10:41.386Z,5528.00
2022-08-03T05:11:41.394Z,5608.00
2022-08-03T05:12:41.392Z,5700.00
2022-08-03T05:13:41.422Z,5768.00
2022-08-03T05:14:41.387Z,5820.00
2022-08-03T05:15:42.938Z,5840.00
2022-08-03T05:16:41.389Z,5852.00
2022-08-03T05:17:41.390Z,5844.00
2022-08-03T05:18:41.393Z,5856.00
2022-08-03T05:19:41.395Z,5848.00
2022-08-03T05:20:41.401Z,5848.00
2022-08-03T05:21:52.596Z,5888.00
2022-08-03T05:22:41.392Z,5948.00
2022-08-03T05:23:41.404Z,6020.00
2022-08-03T05:24:41.397Z,6076.00
2022-08-03T05:25:49.628Z,6144.00
2022-08-03T05:26:41.408Z,6196.00
2022-08-03T05:27:41.401Z,6204.00
2022-08-03T05:28:50.807Z,6188.00
2022-08-03T05:29:41.415Z,6164.00
2022-08-03T05:30:41.417Z,6144.00
2022-08-03T05:31:41.414Z,6124.00
2022-08-03T05:32:41.417Z,6128.00
2022-08-03T05:33:41.431Z,6164.00
2022-08-03T05:34:41.423Z,6192.00
2022-08-03T05:35:57.751Z,6240.00
2022-08-03T05:36:41.424Z,6296.00
2022-08-03T05:37:41.424Z,6356.00
2022-08-03T05:38:41.429Z,6396.00
2022-08-03T05:39:41.432Z,6464.00
2022-08-03T05:40:47.004Z,6532.00
2022-08-03T05:41:41.435Z,6548.00
2022-08-03T05:42:41.435Z,6556.00
2022-08-03T05:43:41.437Z,6540.00
2022-08-03T05:44:41.441Z,6532.00
2022-08-03T05:45:41.444Z,6508.00
2022-08-03T05:46:41.448Z,6488.00
2022-08-03T05:47:41.465Z,6448.00
2022-08-03T05:48:41.458Z,6412.00
2022-08-03T05:49:41.537Z,6400.00
2022-08-03T05:50:42.939Z,6440.00
2022-08-03T05:51:41.468Z,6472.00
2022-08-03T05:52:41.487Z,6512.00
2022-08-03T05:53:41.472Z,6548.00
2022-08-03T05:54:55.627Z,6616.00
2022-08-03T05:55:41.496Z,6660.00
2022-08-03T05:56:41.495Z,6688.00
2022-08-03T05:57:41.488Z,6736.00
2022-08-03T05:58:41.502Z,6784.00
2022-08-03T05:59:53.649Z,6824.00
2022-08-03T06:00:41.513Z,6868.00
2022-08-03T06:01:41.545Z,6952.00
2022-08-03T06:02:41.507Z,7064.00
2022-08-03T06:03:41.514Z,7220.00
2022-08-03T06:04:41.511Z,7448.00
2022-08-03T06:05:43.350Z,7800.00
2022-08-03T06:06:41.520Z,8268.00
2022-08-03T06:07:41.525Z,9208.00
2022-08-03T06:08:41.560Z,12304.00
2022-08-03T06:10:36.610Z,17408.00
2022-08-03T06:10:41.544Z,22816.00
2022-08-03T06:11:41.538Z,25696.00
2022-08-03T06:12:41.541Z,25312.00
2022-08-03T06:13:41.594Z,26464.00
2022-08-03T06:14:41.555Z,27712.00
2022-08-03T06:15:41.559Z,26688.00
2022-08-03T06:16:41.562Z,28352.00
2022-08-03T06:17:41.567Z,28192.00
2022-08-03T06:18:41.582Z,27328.00
2022-08-03T06:19:41.577Z,27392.00
2022-08-03T06:20:41.656Z,26592.00
2022-08-03T06:21:41.586Z,29600.00
2022-08-03T06:22:50.491Z,30912.00
2022-08-03T06:23:54.015Z,29312.00
2022-08-03T06:24:41.607Z,29984.00
2022-08-03T06:25:41.604Z,27424.00
2022-08-03T06:26:41.631Z,26048.00
2022-08-03T06:27:41.621Z,26112.00
2022-08-03T06:28:52.850Z,24640.00
2022-08-03T06:29:41.632Z,23296.00
2022-08-03T06:30:41.637Z,22560.00
2022-08-03T06:31:41.643Z,23008.00
2022-08-03T06:32:41.645Z,24768.00
2022-08-03T06:33:48.509Z,26528.00
2022-08-03T06:34:41.669Z,28032.00
2022-08-03T06:35:41.753Z,28128.00
2022-08-03T06:36:41.676Z,26912.00
2022-08-03T06:37:41.699Z,26144.00
2022-08-03T06:38:41.688Z,29504.00
2022-08-03T06:39:41.692Z,33824.00
2022-08-03T06:40:41.697Z,32224.00
2022-08-03T06:41:44.806Z,32640.00
2022-08-03T06:42:42.074Z,35232.00
2022-08-03T06:44:02.550Z,32480.00
2022-08-03T06:44:41.720Z,31168.00
2022-08-03T06:45:41.771Z,34912.00
2022-08-03T06:46:41.733Z,35648.00
2022-08-03T06:47:41.742Z,34304.00
2022-08-03T06:48:41.749Z,38080.00
2022-08-03T06:49:41.845Z,37888.00
2022-08-03T06:50:41.761Z,35296.00
2022-08-03T06:52:04.259Z,34432.00
2022-08-03T06:52:41.771Z,35264.00
2022-08-03T06:53:41.782Z,37760.00
2022-08-03T06:54:41.792Z,35840.00
2022-08-03T06:55:42.473Z,31712.00
2022-08-03T06:56:41.803Z,32832.00
2022-08-03T06:57:41.809Z,34976.00
2022-08-03T06:58:41.818Z,34048.00
2022-08-03T07:00:08.895Z,38464.00
2022-08-03T07:00:41.833Z,42304.00
2022-08-03T07:01:41.898Z,37856.00
2022-08-03T07:02:41.910Z,37504.00
2022-08-03T07:03:47.609Z,38912.00
2022-08-03T07:04:41.862Z,43008.00
2022-08-03T07:05:41.872Z,47584.00
2022-08-03T07:06:41.884Z,47808.00
2022-08-03T07:07:41.891Z,47168.00
2022-08-03T07:08:41.894Z,47968.00
2022-08-03T07:09:41.904Z,46720.00
2022-08-03T07:10:41.922Z,43520.00
2022-08-03T07:11:41.923Z,47232.00
2022-08-03T07:12:52.749Z,48704.00
2022-08-03T07:13:41.936Z,45184.00
2022-08-03T07:14:41.944Z,45088.00
2022-08-03T07:15:55.315Z,44640.00
2022-08-03T07:16:41.955Z,48160.00
2022-08-03T07:17:41.969Z,49504.00
2022-08-03T07:18:41.970Z,46496.00
2022-08-03T07:19:41.979Z,45504.00
2022-08-03T07:20:41.992Z,49664.00
2022-08-03T07:21:41.994Z,51968.00
2022-08-03T07:22:42.005Z,54528.00
2022-08-03T07:23:42.011Z,55584.00
2022-08-03T07:24:42.016Z,54336.00
2022-08-03T07:25:42.026Z,58336.00
2022-08-03T07:26:42.038Z,59520.00
2022-08-03T07:27:42.056Z,52928.00
2022-08-03T07:28:42.053Z,51712.00
2022-08-03T07:29:42.063Z,52512.00
2022-08-03T07:30:42.081Z,48768.00
2022-08-03T07:31:42.075Z,49536.00
2022-08-03T07:32:50.186Z,58272.00
2022-08-03T07:33:42.096Z,60128.00
2022-08-03T07:34:42.104Z,53024.00
2022-08-03T07:35:42.112Z,53056.00
2022-08-03T07:36:42.125Z,56384.00
2022-08-03T07:37:42.132Z,53952.00
2022-08-03T07:38:42.142Z,49760.00
2022-08-03T07:39:42.151Z,54400.00
2022-08-03T07:40:46.145Z,63648.00
2022-08-03T07:41:42.166Z,63136.00
2022-08-03T07:42:42.177Z,58048.00
2022-08-03T07:43:42.194Z,59616.00
2022-08-03T07:44:42.200Z,56896.00
2022-08-03T07:45:42.218Z,51168.00
2022-08-03T07:46:42.215Z,51648.00
2022-08-03T07:47:42.221Z,54528.00
2022-08-03T07:48:42.234Z,53888.00
2022-08-03T07:49:42.336Z,52480.00
2022-08-03T07:50:42.249Z,48416.00
2022-08-03T07:51:42.256Z,44096.00
2022-08-03T07:52:42.265Z,43264.00
2022-08-03T07:53:47.243Z,44480.00
2022-08-03T07:54:42.301Z,49472.00
2022-08-03T07:55:42.296Z,56544.00
2022-08-03T07:56:42.313Z,54208.00
2022-08-03T07:57:42.328Z,48032.00
2022-08-03T07:58:42.327Z,50560.00
2022-08-03T07:59:56.384Z,56928.00
2022-08-03T08:00:42.343Z,56096.00
2022-08-03T08:01:42.424Z,54240.00
2022-08-03T08:02:42.362Z,60480.00
2022-08-03T08:03:52.600Z,68256.00
2022-08-03T08:04:42.410Z,68512.00
2022-08-03T08:05:42.401Z,62528.00
2022-08-03T08:06:42.430Z,57440.00
2022-08-03T08:07:42.417Z,57888.00
2022-08-03T08:08:42.425Z,64800.00
2022-08-03T08:09:42.432Z,69760.00
2022-08-03T08:10:42.442Z,71168.00
2022-08-03T08:11:42.450Z,73760.00
2022-08-03T08:12:42.456Z,71648.00
2022-08-03T08:13:42.478Z,55136.00
2022-08-03T08:14:42.479Z,20000.00
2022-08-03T08:15:42.631Z,5072.00
2022-08-03T08:16:42.499Z,4608.00
2022-08-03T08:17:42.510Z,4456.00
2022-08-03T08:18:42.526Z,4216.00
2022-08-03T08:19:46.736Z,4088.00
2022-08-03T08:20:42.538Z,4056.00
2022-08-03T08:21:53.039Z,4040.00
2022-08-03T08:22:42.560Z,4020.00
2022-08-03T08:23:44.318Z,4004.00
2022-08-03T08:24:42.589Z,3972.00
2022-08-03T08:25:42.584Z,3952.00
2022-08-03T08:26:42.597Z,3896.00
2022-08-03T08:28:29.286Z,3836.00
2022-08-03T08:28:42.615Z,3776.00
2022-08-03T08:29:47.941Z,3708.00
2022-08-03T08:30:42.633Z,3676.00
2022-08-03T08:31:42.645Z,3620.00
2022-08-03T08:32:42.646Z,3572.00
2022-08-03T08:34:03.189Z,3540.00
2022-08-03T08:34:42.663Z,3512.00
2022-08-03T08:35:42.669Z,3468.00
2022-08-03T08:36:42.675Z,3428.00
2022-08-03T08:37:42.684Z,3408.00
2022-08-03T08:38:42.692Z,3392.00
2022-08-03T08:39:42.696Z,3384.00
2022-08-03T08:40:42.703Z,3376.00
2022-08-03T08:41:46.841Z,3376.00
2022-08-03T08:42:57.545Z,3448.00
2022-08-03T08:43:42.725Z,10872.00
2022-08-03T08:44:42.728Z,49856.00
2022-08-03T08:45:42.734Z,78048.00
2022-08-03T08:46:42.741Z,82752.00
2022-08-03T08:47:51.009Z,89472.00
2022-08-03T08:48:42.751Z,92608.00
2022-08-03T08:49:58.192Z,74464.00
2022-08-03T08:50:42.763Z,29120.00
2022-08-03T08:51:59.439Z,5412.00
2022-08-03T08:52:42.775Z,3580.00
2022-08-03T08:53:42.785Z,3308.00
2022-08-03T08:54:42.793Z,3236.00
2022-08-03T08:55:58.669Z,3196.00
2022-08-03T08:56:42.798Z,3212.00
2022-08-03T08:57:43.614Z,3332.00
2022-08-03T08:58:42.813Z,3540.00
2022-08-03T08:59:47.903Z,3696.00
2022-08-03T09:00:42.837Z,3764.00
2022-08-03T09:01:42.827Z,3732.00
2022-08-03T09:02:42.827Z,3692.00
2022-08-03T09:03:42.837Z,3628.00
2022-08-03T09:04:42.843Z,3472.00
2022-08-03T09:05:55.701Z,3364.00
2022-08-03T09:06:53.694Z,3344.00
2022-08-03T09:07:42.858Z,3312.00
2022-08-03T09:08:42.864Z,3312.00
2022-08-03T09:10:10.363Z,3292.00
2022-08-03T09:10:42.875Z,3276.00
2022-08-03T09:11:51.742Z,3224.00
2022-08-03T09:12:43.073Z,3168.00
2022-08-03T09:13:42.895Z,3136.00
2022-08-03T09:14:55.136Z,3112.00
2022-08-03T09:15:42.911Z,3064.00
2022-08-03T09:16:42.913Z,3008.00
2022-08-03T09:17:45.428Z,2960.00
2022-08-03T09:18:42.922Z,2912.00
2022-08-03T09:19:42.928Z,2876.00
2022-08-03T09:20:42.933Z,2856.00
2022-08-03T09:21:42.944Z,2852.00
2022-08-03T09:22:42.943Z,2884.00
2022-08-03T09:23:51.845Z,2952.00
2022-08-03T09:24:43.488Z,3080.00
2022-08-03T09:25:42.959Z,3164.00
2022-08-03T09:26:42.965Z,3276.00
2022-08-03T09:27:42.970Z,3368.00
2022-08-03T09:29:01.328Z,3420.00
2022-08-03T09:29:42.981Z,3404.00
2022-08-03T09:30:42.987Z,3336.00
2022-08-03T09:31:43.201Z,3244.00
2022-08-03T09:32:42.986Z,3124.00
2022-08-03T09:33:42.993Z,3104.00
2022-08-03T09:34:43.000Z,3104.00
2022-08-03T09:35:58.505Z,3172.00
2022-08-03T09:36:43.020Z,3244.00
2022-08-03T09:38:13.920Z,3252.00
2022-08-03T09:38:43.027Z,3288.00
2022-08-03T09:39:43.021Z,3348.00
2022-08-03T09:40:43.022Z,3360.00
2022-08-03T09:41:43.028Z,3324.00
2022-08-03T09:42:43.031Z,3272.00
2022-08-03T09:43:43.038Z,3204.00
2022-08-03T09:44:43.041Z,3168.00
2022-08-03T09:45:43.044Z,3144.00
2022-08-03T09:46:43.050Z,3140.00
2022-08-03T09:47:44.919Z,3112.00
2022-08-03T09:48:43.051Z,3076.00
2022-08-03T09:49:43.110Z,3012.00
2022-08-03T09:50:43.063Z,2932.00
2022-08-03T09:52:31.804Z,2848.00
2022-08-03T09:52:50.029Z,2776.00
2022-08-03T09:53:51.497Z,2744.00
2022-08-03T09:54:43.082Z,2748.00
2022-08-03T09:56:34.774Z,2772.00
2022-08-03T09:56:43.083Z,2812.00
2022-08-03T09:57:43.093Z,2824.00
2022-08-03T09:58:43.096Z,2812.00
2022-08-03T09:59:43.101Z,2744.00
2022-08-03T10:00:43.143Z,2640.00
2022-08-03T10:01:43.185Z,2628.00
2022-08-03T10:02:43.113Z,2572.00
2022-08-03T10:04:02.965Z,2548.00
2022-08-03T10:04:43.119Z,2572.00
2022-08-03T10:05:43.125Z,2560.00
2022-08-03T10:06:43.127Z,2556.00
2022-08-03T10:07:46.117Z,2536.00
2022-08-03T10:08:43.134Z,2568.00
2022-08-03T10:09:43.142Z,2584.00
2022-08-03T10:10:43.147Z,2712.00
2022-08-03T10:11:43.154Z,2812.00
2022-08-03T10:12:43.150Z,2904.00
2022-08-03T10:13:43.154Z,3008.00
2022-08-03T10:14:43.160Z,3084.00
2022-08-03T10:16:22.946Z,3164.00
2022-08-03T10:16:43.162Z,3280.00
2022-08-03T10:17:43.170Z,3340.00
2022-08-03T10:18:43.173Z,3332.00
2022-08-03T10:19:43.181Z,3308.00
2022-08-03T10:20:43.186Z,3256.00
2022-08-03T10:21:43.187Z,3220.00
2022-08-03T10:22:43.184Z,3200.00
2022-08-03T10:23:43.191Z,3164.00
2022-08-03T10:24:43.193Z,3136.00
2022-08-03T10:25:43.197Z,3132.00
2022-08-03T10:26:49.987Z,3124.00
2022-08-03T10:27:43.207Z,3124.00
2022-08-03T10:28:45.488Z,3132.00
2022-08-03T10:29:43.216Z,3136.00
2022-08-03T10:30:43.217Z,3224.00
2022-08-03T10:31:57.746Z,3260.00
2022-08-03T10:32:43.222Z,3324.00
2022-08-03T10:33:51.982Z,3380.00
2022-08-03T10:34:44.687Z,3436.00
2022-08-03T10:35:43.240Z,3448.00
2022-08-03T10:36:43.245Z,3464.00
2022-08-03T10:37:43.246Z,3448.00
2022-08-03T10:38:43.248Z,3380.00
2022-08-03T10:39:43.254Z,3324.00
2022-08-03T10:40:53.480Z,3292.00
2022-08-03T10:41:43.265Z,3228.00
2022-08-03T10:42:43.265Z,3192.00
2022-08-03T10:43:43.271Z,3164.00
2022-08-03T10:44:43.274Z,3112.00
2022-08-03T10:45:43.276Z,3060.00
2022-08-03T10:46:45.183Z,3008.00
2022-08-03T10:47:43.286Z,2996.00
2022-08-03T10:48:43.289Z,2936.00
2022-08-03T10:49:43.355Z,2936.00
2022-08-03T10:50:43.293Z,2892.00
2022-08-03T10:51:43.297Z,2916.00
2022-08-03T10:52:45.371Z,2920.00
2022-08-03T10:53:44.114Z,2920.00
2022-08-03T10:54:43.335Z,2964.00
2022-08-03T10:55:43.321Z,2932.00
2022-08-03T10:56:49.738Z,2948.00
2022-08-03T10:57:43.320Z,2944.00
2022-08-03T10:58:57.703Z,2976.00
2022-08-03T10:59:43.330Z,2996.00
2022-08-03T11:00:43.384Z,3068.00
2022-08-03T11:01:58.183Z,3256.00
2022-08-03T11:02:43.343Z,5224.00
2022-08-03T11:03:43.346Z,6656.00
2022-08-03T11:04:43.364Z,7232.00
2022-08-03T11:05:43.352Z,6412.00
2022-08-03T11:06:43.368Z,3300.00
2022-08-03T11:07:43.361Z,2708.00
2022-08-03T11:08:43.366Z,2712.00
2022-08-03T11:09:43.374Z,2720.00
2022-08-03T11:10:43.379Z,2728.00
2022-08-03T11:11:43.381Z,2748.00
2022-08-03T11:12:43.382Z,2720.00
2022-08-03T11:13:43.393Z,2764.00
2022-08-03T11:14:43.393Z,2780.00
2022-08-03T11:15:43.393Z,2808.00
2022-08-03T11:16:43.404Z,2796.00
2022-08-03T11:17:46.450Z,2800.00
2022-08-03T11:18:43.411Z,2836.00
2022-08-03T11:19:57.366Z,2840.00
2022-08-03T11:20:43.416Z,2820.00
2022-08-03T11:21:43.420Z,2824.00
2022-08-03T11:22:43.423Z,2828.00
2022-08-03T11:24:03.420Z,2812.00
2022-08-03T11:24:43.431Z,2820.00
2022-08-03T11:25:54.858Z,2888.00
2022-08-03T11:26:43.443Z,3452.00
2022-08-03T11:27:43.443Z,5740.00
2022-08-03T11:28:43.454Z,7004.00
2022-08-03T11:29:43.461Z,4868.00
2022-08-03T11:30:43.459Z,3540.00
2022-08-03T11:31:51.812Z,3164.00
2022-08-03T11:32:46.740Z,3048.00
2022-08-03T11:33:43.468Z,3052.00
2022-08-03T11:34:43.474Z,3068.00
2022-08-03T11:35:43.479Z,3156.00
2022-08-03T11:36:43.485Z,3216.00
2022-08-03T11:37:43.490Z,3284.00
2022-08-03T11:38:43.494Z,3300.00
2022-08-03T11:39:43.503Z,3376.00
2022-08-03T11:40:43.530Z,3352.00
2022-08-03T11:41:45.229Z,3356.00
2022-08-03T11:42:43.509Z,3412.00
2022-08-03T11:43:43.514Z,3448.00
2022-08-03T11:44:47.454Z,3476.00
2022-08-03T11:45:43.528Z,3496.00
2022-08-03T11:46:43.535Z,3504.00
2022-08-03T11:47:50.714Z,3448.00
2022-08-03T11:48:43.536Z,3372.00
2022-08-03T11:49:43.599Z,3216.00
2022-08-03T11:50:43.546Z,3140.00
2022-08-03T11:51:43.557Z,3056.00
2022-08-03T11:52:43.556Z,2988.00
2022-08-03T11:53:43.561Z,2980.00
2022-08-03T11:54:43.564Z,2964.00
2022-08-03T11:55:43.571Z,2964.00
2022-08-03T11:56:43.577Z,2960.00
2022-08-03T11:59:01.306Z,2948.00
2022-08-03T11:59:14.260Z,2952.00
2022-08-03T11:59:43.592Z,2940.00
2022-08-03T12:00:43.592Z,2980.00
2022-08-03T12:01:43.598Z,2996.00
2022-08-03T12:02:43.934Z,3036.00
2022-08-03T12:03:43.661Z,3060.00
2022-08-03T12:04:43.610Z,3072.00
2022-08-03T12:05:51.054Z,3068.00
2022-08-03T12:06:47.256Z,3028.00
2022-08-03T12:08:03.494Z,2988.00
2022-08-03T12:08:43.634Z,2964.00
2022-08-03T12:09:43.640Z,2944.00
2022-08-03T12:10:43.640Z,2904.00
2022-08-03T12:11:59.709Z,2896.00
2022-08-03T12:12:46.530Z,2888.00
2022-08-03T12:14:33.082Z,2908.00
2022-08-03T12:14:48.638Z,2908.00
2022-08-03T12:15:43.665Z,2936.00
2022-08-03T12:16:43.665Z,2964.00
2022-08-03T12:17:43.729Z,2960.00
2022-08-03T12:18:43.676Z,2940.00
2022-08-03T12:19:43.717Z,3076.00
2022-08-03T12:20:43.687Z,3136.00